Time;durP1;ratioP1;P1;durP2;ratioP2;P2;SDS_P1;SDS_P2;PMS_P1;PMS_P2;Temp;Humidity;BMP_temperature;BMP_pressure;BME280_temperature;BME280_humidity;BME280_pressure;Samples;Min_cycle;Max_cycle;Signal;HPM_P1;HPM_P2
2024/04/24 00:00:33;;;;;;;9.02;6.07;;;;;;;;;;5430592;26;20050;-61
2024/04/24 00:03:02;;;;;;;10.48;6.10;;;;;;;;;;5411673;26;20030;-61
2024/04/24 00:05:30;;;;;;;10.02;6.10;;;;;;;;;;5414282;26;20031;-61
2024/04/24 00:07:56;;;;;;;10.63;6.57;;;;;;;;;;5403844;26;20032;-61
2024/04/24 00:10:22;;;;;;;8.40;6.03;;;;;;;;;;5425604;26;20031;-61
2024/04/24 00:12:48;;;;;;;9.65;6.05;;;;;;;;;;5438021;26;20106;-61
2024/04/24 00:15:14;;;;;;;9.13;5.85;;;;;;;;;;5445778;26;20034;-61
2024/04/24 00:17:40;;;;;;;9.95;5.90;;;;;;;;;;5435833;26;20034;-61
2024/04/24 00:20:07;;;;;;;9.48;5.80;;;;;;;;;;5442723;26;20044;-61
2024/04/24 00:22:33;;;;;;;8.88;5.70;;;;;;;;;;5443257;26;20030;-61
2024/04/24 00:24:59;;;;;;;8.35;5.70;;;;;;;;;;5444192;26;20341;-61
2024/04/24 00:27:26;;;;;;;9.35;6.30;;;;;;;;;;5442936;26;20038;-61
2024/04/24 00:29:52;;;;;;;10.75;6.55;;;;;;;;;;5437467;26;20032;-62
2024/04/24 00:32:19;;;;;;;11.07;6.70;;;;;;;;;;5441522;26;20030;-61
2024/04/24 00:34:45;;;;;;;11.32;6.55;;;;;;;;;;5438776;26;20031;-62
2024/04/24 00:37:11;;;;;;;11.45;5.85;;;;;;;;;;5438198;26;20693;-61
2024/04/24 00:39:37;;;;;;;10.38;6.22;;;;;;;;;;5436389;26;20034;-64
2024/04/24 00:42:03;;;;;;;9.63;6.05;;;;;;;;;;5378861;26;20031;-61
2024/04/24 00:44:29;;;;;;;8.73;6.15;;;;;;;;;;5442018;26;20031;-62
2024/04/24 00:46:57;;;;;;;8.82;6.20;;;;;;;;;;5435948;26;20030;-61
2024/04/24 00:49:25;;;;;;;8.07;6.05;;;;;;;;;;5435630;26;20034;-63
2024/04/24 00:51:53;;;;;;;9.77;6.10;;;;;;;;;;5413784;26;20059;-62
2024/04/24 00:54:19;;;;;;;11.27;5.95;;;;;;;;;;5425480;26;20382;-62
2024/04/24 00:56:45;;;;;;;11.23;5.90;;;;;;;;;;5434979;26;20034;-62
2024/04/24 00:59:11;;;;;;;7.55;5.00;;;;;;;;;;5408393;26;20035;-62
2024/04/24 01:01:38;;;;;;;10.40;5.95;;;;;;;;;;5414407;26;20030;-62
2024/04/24 01:04:04;;;;;;;8.85;5.47;;;;;;;;;;5434114;26;20026;-63
2024/04/24 01:06:30;;;;;;;9.63;5.57;;;;;;;;;;5432588;26;20027;-62
2024/04/24 01:08:59;;;;;;;9.73;6.10;;;;;;;;;;5443028;26;20035;-61
2024/04/24 01:11:25;;;;;;;9.15;5.32;;;;;;;;;;5444492;26;20038;-62
2024/04/24 01:13:51;;;;;;;9.55;5.53;;;;;;;;;;5441100;26;20031;-62
2024/04/24 01:16:27;;;;;;;9.60;5.82;;;;;;;;;;5413231;26;20046;-61
2024/04/24 01:19:01;;;;;;;10.93;6.07;;;;;;;;;;5431012;26;20027;-62
2024/04/24 01:21:44;;;;;;;10.68;5.80;;;;;;;;;;5446107;26;20031;-62
2024/04/24 01:24:23;;;;;;;6.90;5.10;;;;;;;;;;5442522;26;23642;-62
2024/04/24 01:26:50;;;;;;;7.82;5.50;;;;;;;;;;5441197;26;20706;-62
2024/04/24 01:29:16;;;;;;;9.20;6.00;;;;;;;;;;5438705;26;20039;-64
2024/04/24 01:31:42;;;;;;;10.40;5.47;;;;;;;;;;5410573;26;20490;-62
2024/04/24 01:34:08;;;;;;;11.60;5.65;;;;;;;;;;5438578;26;20039;-62
2024/04/24 01:36:34;;;;;;;9.98;6.18;;;;;;;;;;5442683;26;20038;-63
2024/04/24 01:39:03;;;;;;;9.23;5.60;;;;;;;;;;5442086;26;20035;-61
2024/04/24 01:41:29;;;;;;;9.82;5.35;;;;;;;;;;5440789;26;20044;-63
2024/04/24 01:43:55;;;;;;;10.05;5.13;;;;;;;;;;5408767;26;20035;-62
2024/04/24 01:46:22;;;;;;;8.23;5.65;;;;;;;;;;5437177;26;20074;-63
2024/04/24 01:48:48;;;;;;;8.90;5.47;;;;;;;;;;5436609;26;20555;-62
2024/04/24 01:51:14;;;;;;;11.18;5.65;;;;;;;;;;5411552;26;20038;-62
2024/04/24 01:53:40;;;;;;;9.35;5.43;;;;;;;;;;5433662;26;20383;-62
2024/04/24 01:56:10;;;;;;;9.40;6.18;;;;;;;;;;5430546;26;20031;-61
2024/04/24 01:58:36;;;;;;;8.40;5.45;;;;;;;;;;5435648;26;20047;-62
2024/04/24 02:01:02;;;;;;;9.05;5.45;;;;;;;;;;5440252;26;20042;-62
2024/04/24 02:03:29;;;;;;;8.15;5.00;;;;;;;;;;5434591;26;20023;-60
2024/04/24 02:05:55;;;;;;;9.60;5.22;;;;;;;;;;5444400;26;20031;-61
2024/04/24 02:08:21;;;;;;;8.63;5.45;;;;;;;;;;5440943;26;20035;-60
2024/04/24 02:10:47;;;;;;;7.97;5.10;;;;;;;;;;5444116;26;20510;-60
2024/04/24 02:13:13;;;;;;;8.88;5.55;;;;;;;;;;5437058;26;20074;-61
2024/04/24 02:15:39;;;;;;;10.02;5.32;;;;;;;;;;5438007;26;20475;-61
2024/04/24 02:18:06;;;;;;;8.63;5.40;;;;;;;;;;5447520;26;20040;-62
2024/04/24 02:20:33;;;;;;;9.35;5.60;;;;;;;;;;5443698;26;20030;-62
2024/04/24 02:23:05;;;;;;;11.95;5.63;;;;;;;;;;5445677;26;20395;-61
2024/04/24 02:25:36;;;;;;;10.05;5.88;;;;;;;;;;5439697;26;20027;-63
2024/04/24 02:28:03;;;;;;;10.25;6.80;;;;;;;;;;5437135;26;20027;-62
2024/04/24 02:30:29;;;;;;;9.52;5.85;;;;;;;;;;5438799;26;20494;-62
2024/04/24 02:32:55;;;;;;;12.98;5.80;;;;;;;;;;5389969;26;20389;-61
2024/04/24 02:35:21;;;;;;;9.15;5.82;;;;;;;;;;5411873;26;20050;-61
2024/04/24 02:37:47;;;;;;;9.90;5.93;;;;;;;;;;5431074;26;20031;-63
2024/04/24 02:40:14;;;;;;;10.30;5.90;;;;;;;;;;5409068;26;20038;-63
2024/04/24 02:42:40;;;;;;;11.15;6.78;;;;;;;;;;5434789;26;20039;-62
2024/04/24 02:45:06;;;;;;;11.05;6.30;;;;;;;;;;5434900;26;20039;-62
2024/04/24 02:47:32;;;;;;;9.13;5.68;;;;;;;;;;5432789;26;20371;-62
2024/04/24 02:49:58;;;;;;;9.80;6.10;;;;;;;;;;5434514;26;20706;-62
2024/04/24 02:52:24;;;;;;;15.90;6.68;;;;;;;;;;5433088;26;20121;-62
2024/04/24 02:54:50;;;;;;;10.23;5.57;;;;;;;;;;5430587;26;20034;-62
2024/04/24 02:57:17;;;;;;;11.48;5.82;;;;;;;;;;5444064;26;20031;-62
2024/04/24 02:59:43;;;;;;;9.48;5.68;;;;;;;;;;5436943;26;20031;-62
2024/04/24 03:02:09;;;;;;;10.68;5.63;;;;;;;;;;5433469;26;20019;-63
2024/04/24 03:04:35;;;;;;;9.05;6.05;;;;;;;;;;5429058;26;20034;-62
2024/04/24 03:07:01;;;;;;;10.80;6.13;;;;;;;;;;5430799;26;20031;-61
2024/04/24 03:09:27;;;;;;;12.30;6.28;;;;;;;;;;5402011;26;20077;-62
2024/04/24 03:11:53;;;;;;;11.10;7.10;;;;;;;;;;5411079;26;20050;-62
2024/04/24 03:14:20;;;;;;;9.80;5.97;;;;;;;;;;5441306;26;20042;-63
2024/04/24 03:16:46;;;;;;;11.20;5.97;;;;;;;;;;5441483;26;20035;-63
2024/04/24 03:19:12;;;;;;;8.95;5.75;;;;;;;;;;5437081;26;20395;-62
2024/04/24 03:21:38;;;;;;;9.60;5.95;;;;;;;;;;5439834;26;20042;-62
2024/04/24 03:24:06;;;;;;;10.65;5.95;;;;;;;;;;5441539;26;20030;-62
2024/04/24 03:26:32;;;;;;;10.40;6.10;;;;;;;;;;5438125;26;20035;-62
2024/04/24 03:28:58;;;;;;;9.75;5.45;;;;;;;;;;5435317;26;20035;-64
2024/04/24 03:31:24;;;;;;;9.23;5.88;;;;;;;;;;5437447;26;20042;-62
2024/04/24 03:33:50;;;;;;;11.38;5.70;;;;;;;;;;5433267;26;20339;-64
2024/04/24 03:36:17;;;;;;;11.50;5.72;;;;;;;;;;5437052;26;20018;-65
2024/04/24 03:38:43;;;;;;;10.57;5.53;;;;;;;;;;5408019;26;20004;-64
2024/04/24 03:41:09;;;;;;;11.23;5.82;;;;;;;;;;5399772;26;20027;-66
2024/04/24 03:43:35;;;;;;;12.05;6.20;;;;;;;;;;5439736;26;20039;-65
2024/04/24 03:46:01;;;;;;;8.98;5.72;;;;;;;;;;5437031;26;20050;-62
2024/04/24 03:48:27;;;;;;;11.20;6.38;;;;;;;;;;5397104;26;19999;-62
2024/04/24 03:50:54;;;;;;;9.25;6.05;;;;;;;;;;5429470;26;20042;-58
2024/04/24 03:53:20;;;;;;;16.15;7.07;;;;;;;;;;5437520;26;20663;-62
2024/04/24 03:55:46;;;;;;;10.85;6.15;;;;;;;;;;5431092;26;20456;-60
2024/04/24 03:58:12;;;;;;;9.95;5.78;;;;;;;;;;5398454;26;20043;-63
2024/04/24 04:00:38;;;;;;;9.82;5.70;;;;;;;;;;5432169;26;20550;-61
2024/04/24 04:03:07;;;;;;;9.88;5.68;;;;;;;;;;5426030;26;20023;-60
2024/04/24 04:05:33;;;;;;;10.50;5.80;;;;;;;;;;5429370;26;20105;-63
2024/04/24 04:08:00;;;;;;;11.80;6.47;;;;;;;;;;5436348;26;20007;-62
2024/04/24 04:10:26;;;;;;;10.48;6.35;;;;;;;;;;5442790;26;20026;-62
2024/04/24 04:12:52;;;;;;;9.32;5.70;;;;;;;;;;5439786;26;20518;-63
2024/04/24 04:15:18;;;;;;;11.32;5.97;;;;;;;;;;5427521;26;20134;-63
2024/04/24 04:17:45;;;;;;;18.02;8.13;;;;;;;;;;5440525;26;20043;-61
2024/04/24 04:20:11;;;;;;;12.63;7.22;;;;;;;;;;5441519;26;20028;-61
2024/04/24 04:22:37;;;;;;;12.52;6.55;;;;;;;;;;5444404;26;20027;-61
2024/04/24 04:25:04;;;;;;;12.60;6.20;;;;;;;;;;5409366;26;20502;-62
2024/04/24 04:27:31;;;;;;;13.25;6.45;;;;;;;;;;5409165;26;20009;-62
2024/04/24 04:30:00;;;;;;;10.40;6.57;;;;;;;;;;5433089;26;20024;-62
2024/04/24 04:32:26;;;;;;;10.35;6.15;;;;;;;;;;5441539;26;20034;-61
2024/04/24 04:34:52;;;;;;;12.60;7.07;;;;;;;;;;5409040;26;20039;-61
2024/04/24 04:37:19;;;;;;;9.52;6.22;;;;;;;;;;5439386;26;20038;-60
2024/04/24 04:39:45;;;;;;;10.23;6.05;;;;;;;;;;5404630;26;20040;-62
2024/04/24 04:42:11;;;;;;;11.20;6.82;;;;;;;;;;5435449;26;20015;-62
2024/04/24 04:44:37;;;;;;;11.07;6.30;;;;;;;;;;5453297;21;20034;-63
2024/04/24 04:47:03;;;;;;;9.38;6.13;;;;;;;;;;5431189;26;20033;-64
2024/04/24 04:49:29;;;;;;;11.45;7.07;;;;;;;;;;5434936;26;20030;-62
2024/04/24 04:51:55;;;;;;;12.13;7.93;;;;;;;;;;5413425;26;20030;-62
2024/04/24 04:54:21;;;;;;;10.70;7.00;;;;;;;;;;5405259;26;20517;-62
2024/04/24 04:56:48;;;;;;;14.38;7.20;;;;;;;;;;5411703;26;20388;-62
2024/04/24 04:59:14;;;;;;;13.23;6.88;;;;;;;;;;5409013;26;20078;-63
2024/04/24 05:01:40;;;;;;;10.20;6.70;;;;;;;;;;5405338;26;20039;-63
2024/04/24 05:04:06;;;;;;;11.43;7.07;;;;;;;;;;5408729;26;20036;-63
2024/04/24 05:06:32;;;;;;;12.40;7.53;;;;;;;;;;5400309;26;20035;-63
2024/04/24 05:08:58;;;;;;;10.63;6.55;;;;;;;;;;5411958;26;20048;-63
2024/04/24 05:11:24;;;;;;;13.48;7.28;;;;;;;;;;5405470;26;20039;-64
2024/04/24 05:13:50;;;;;;;11.82;7.13;;;;;;;;;;5407688;26;20036;-63
2024/04/24 05:16:16;;;;;;;18.88;7.43;;;;;;;;;;5351472;26;20028;-62
2024/04/24 05:18:42;;;;;;;12.88;7.20;;;;;;;;;;5377146;26;20031;-62
2024/04/24 05:21:09;;;;;;;12.68;7.05;;;;;;;;;;5369769;26;20035;-62
2024/04/24 05:23:35;;;;;;;11.75;6.45;;;;;;;;;;5402688;26;20035;-64
2024/04/24 05:29:07;;;;;;;11.85;6.80;;;;;;;;;;5403903;26;20031;-63
2024/04/24 05:31:35;;;;;;;12.73;6.85;;;;;;;;;;5407925;26;20040;-63
2024/04/24 05:34:02;;;;;;;11.93;6.57;;;;;;;;;;5410308;26;20031;-64
2024/04/24 05:36:28;;;;;;;8.48;6.07;;;;;;;;;;5381750;26;20044;-63
2024/04/24 05:38:54;;;;;;;11.25;7.22;;;;;;;;;;5405578;26;20035;-63
2024/04/24 05:41:21;;;;;;;9.63;6.00;;;;;;;;;;5409838;26;20036;-62
2024/04/24 05:43:47;;;;;;;8.80;5.70;;;;;;;;;;5412616;26;20040;-62
2024/04/24 05:46:13;;;;;;;10.63;5.90;;;;;;;;;;5384940;26;20487;-62
2024/04/24 05:48:39;;;;;;;9.57;5.75;;;;;;;;;;5411355;26;20023;-62
2024/04/24 05:51:05;;;;;;;12.25;5.68;;;;;;;;;;5409546;26;20375;-62
2024/04/24 05:53:31;;;;;;;11.95;5.93;;;;;;;;;;5412486;26;20028;-61
2024/04/24 05:55:57;;;;;;;11.98;5.75;;;;;;;;;;5379946;26;20028;-63
2024/04/24 05:58:23;;;;;;;8.43;5.38;;;;;;;;;;5411425;26;20035;-62
2024/04/24 06:00:49;;;;;;;11.30;5.65;;;;;;;;;;5405799;26;20043;-62
2024/04/24 06:03:16;;;;;;;11.90;5.55;;;;;;;;;;5410767;26;20063;-64
2024/04/24 06:05:42;;;;;;;8.35;5.22;;;;;;;;;;5409358;26;20082;-62
2024/04/24 06:08:08;;;;;;;10.80;5.75;;;;;;;;;;5411003;26;20040;-63
2024/04/24 06:10:34;;;;;;;9.20;5.72;;;;;;;;;;5352027;26;20043;-64
2024/04/24 06:13:00;;;;;;;10.27;6.00;;;;;;;;;;5376949;26;20495;-62
2024/04/24 06:15:28;;;;;;;11.48;5.80;;;;;;;;;;5412688;26;20028;-62
2024/04/24 06:17:55;;;;;;;10.00;5.70;;;;;;;;;;5374291;26;20048;-62
2024/04/24 06:20:21;;;;;;;7.97;5.80;;;;;;;;;;5400015;26;20017;-62
2024/04/24 06:22:48;;;;;;;11.82;5.53;;;;;;;;;;5416216;26;20403;-62
2024/04/24 06:25:15;;;;;;;9.73;6.05;;;;;;;;;;5411593;26;20040;-62
2024/04/24 06:27:41;;;;;;;10.23;6.05;;;;;;;;;;5411691;26;20523;-62
2024/04/24 06:30:07;;;;;;;10.25;6.47;;;;;;;;;;5409619;26;20043;-62
2024/04/24 06:32:33;;;;;;;11.05;6.60;;;;;;;;;;5408344;26;20043;-62
2024/04/24 06:34:59;;;;;;;15.15;6.45;;;;;;;;;;5409698;26;20032;-62
2024/04/24 06:37:25;;;;;;;10.13;6.50;;;;;;;;;;5411813;26;20360;-62
2024/04/24 06:39:52;;;;;;;11.73;6.30;;;;;;;;;;5410515;26;20039;-63
2024/04/24 06:42:18;;;;;;;11.82;6.60;;;;;;;;;;5379559;26;20502;-62
2024/04/24 06:44:44;;;;;;;10.68;6.57;;;;;;;;;;5388429;26;20031;-62
2024/04/24 06:47:10;;;;;;;11.70;7.00;;;;;;;;;;5373104;26;20032;-62
2024/04/24 06:49:36;;;;;;;13.07;7.97;;;;;;;;;;5390094;26;20059;-63
2024/04/24 06:52:06;;;;;;;11.95;7.43;;;;;;;;;;5354750;26;20032;-63
2024/04/24 06:54:32;;;;;;;;;;;;;;;;;;5353442;26;20041;-63
2024/04/24 06:56:58;;;;;;;12.82;7.25;;;;;;;;;;5373551;26;19933;-62
2024/04/24 06:59:24;;;;;;;11.93;7.30;;;;;;;;;;5346316;26;20028;-62
2024/04/24 07:01:53;;;;;;;13.40;7.72;;;;;;;;;;5372335;26;20025;-63
2024/04/24 07:04:21;;;;;;;15.70;8.53;;;;;;;;;;5377529;26;20060;-63
2024/04/24 07:06:47;;;;;;;12.07;8.15;;;;;;;;;;5399146;26;20572;-62
2024/04/24 07:09:13;;;;;;;14.77;8.80;;;;;;;;;;5363117;26;20008;-62
2024/04/24 07:11:39;;;;;;;13.88;8.60;;;;;;;;;;5375563;26;20024;-62
2024/04/24 07:14:05;;;;;;;13.57;8.50;;;;;;;;;;5343993;26;20029;-62
2024/04/24 07:16:31;;;;;;;14.02;9.10;;;;;;;;;;5374975;26;20025;-63
2024/04/24 07:18:57;;;;;;;14.52;9.27;;;;;;;;;;5368679;26;20040;-62
2024/04/24 07:21:25;;;;;;;15.27;9.57;;;;;;;;;;5348906;26;20397;-62
2024/04/24 07:23:51;;;;;;;12.40;9.00;;;;;;;;;;5373448;26;20024;-63
2024/04/24 07:26:18;;;;;;;15.13;8.55;;;;;;;;;;5353632;26;20000;-62
2024/04/24 07:28:45;;;;;;;12.85;8.43;;;;;;;;;;5331948;26;20393;-62
2024/04/24 07:31:11;;;;;;;12.43;8.23;;;;;;;;;;5338562;26;20033;-63
2024/04/24 07:33:37;;;;;;;14.00;8.70;;;;;;;;;;5408688;26;20025;-62
2024/04/24 07:36:04;;;;;;;13.07;8.55;;;;;;;;;;5340067;26;20511;-62
2024/04/24 07:38:30;;;;;;;12.98;8.20;;;;;;;;;;5373213;26;20024;-63
2024/04/24 07:40:56;;;;;;;12.50;7.70;;;;;;;;;;5348447;26;20032;-62
2024/04/24 07:43:22;;;;;;;15.80;9.30;;;;;;;;;;5374043;26;20028;-63
2024/04/24 07:45:48;;;;;;;14.80;8.40;;;;;;;;;;5392499;26;20495;-63
2024/04/24 07:48:18;;;;;;;13.63;9.20;;;;;;;;;;5377414;26;20018;-64
2024/04/24 07:50:46;;;;;;;13.82;9.30;;;;;;;;;;5402890;26;20028;-63
2024/04/24 07:53:15;;;;;;;13.43;8.98;;;;;;;;;;5408521;26;20036;-63
2024/04/24 07:55:42;;;;;;;12.77;8.70;;;;;;;;;;5411380;26;20035;-63
2024/04/24 07:58:09;;;;;;;14.52;8.60;;;;;;;;;;5413139;26;20063;-63
2024/04/24 08:00:35;;;;;;;15.70;9.57;;;;;;;;;;5413840;26;20027;-62
2024/04/24 08:03:01;;;;;;;15.82;10.10;;;;;;;;;;5390453;26;20497;-63
2024/04/24 08:05:28;;;;;;;16.50;10.05;;;;;;;;;;5380169;26;20511;-63
2024/04/24 08:07:54;;;;;;;13.85;8.55;;;;;;;;;;5411820;26;20024;-62
2024/04/24 08:10:20;;;;;;;15.30;10.07;;;;;;;;;;5365338;26;20040;-62
2024/04/24 08:12:46;;;;;;;15.05;9.90;;;;;;;;;;5382061;26;20384;-62
2024/04/24 08:15:12;;;;;;;14.40;9.73;;;;;;;;;;5411631;26;20039;-62
2024/04/24 08:17:38;;;;;;;19.73;10.88;;;;;;;;;;5414106;26;20043;-62
2024/04/24 08:20:05;;;;;;;13.48;9.70;;;;;;;;;;5381975;26;20031;-62
2024/04/24 08:22:32;;;;;;;15.43;10.20;;;;;;;;;;5414027;26;20043;-62
2024/04/24 08:24:58;;;;;;;16.20;9.93;;;;;;;;;;5381066;26;20039;-62
2024/04/24 08:27:24;;;;;;;13.80;9.40;;;;;;;;;;5404698;26;20035;-63
2024/04/24 08:29:50;;;;;;;16.05;9.43;;;;;;;;;;5409135;26;20380;-63
2024/04/24 08:32:16;;;;;;;15.50;10.43;;;;;;;;;;5381585;26;20031;-62
2024/04/24 08:34:43;;;;;;;19.98;12.30;;;;;;;;;;5409744;26;20027;-63
2024/04/24 08:37:09;;;;;;;19.08;10.80;;;;;;;;;;5412940;26;20028;-64
2024/04/24 08:39:35;;;;;;;16.70;10.15;;;;;;;;;;5412395;26;20031;-63
2024/04/24 08:42:03;;;;;;;16.77;11.35;;;;;;;;;;5410023;26;20114;-64
2024/04/24 08:44:30;;;;;;;19.67;11.88;;;;;;;;;;5413967;26;20031;-63
2024/04/24 08:46:56;;;;;;;17.13;11.50;;;;;;;;;;5382083;26;20170;-62
2024/04/24 08:49:23;;;;;;;14.40;9.75;;;;;;;;;;5378616;26;20021;-62
2024/04/24 08:51:50;;;;;;;13.80;8.90;;;;;;;;;;5376704;26;20417;-63
2024/04/24 08:54:21;;;;;;;14.45;9.68;;;;;;;;;;5359415;26;20036;-62
2024/04/24 08:56:52;;;;;;;14.55;9.00;;;;;;;;;;5375444;26;20388;-62
2024/04/24 08:59:23;;;;;;;14.38;9.75;;;;;;;;;;5374590;26;20036;-62
2024/04/24 09:02:08;;;;;;;13.63;9.35;;;;;;;;;;5375076;26;20388;-64
2024/04/24 09:04:36;;;;;;;14.43;8.70;;;;;;;;;;5370616;26;20048;-63
2024/04/24 09:07:03;;;;;;;12.35;8.63;;;;;;;;;;5372396;26;20032;-62
2024/04/24 09:09:30;;;;;;;14.82;9.77;;;;;;;;;;5377999;26;20036;-62
2024/04/24 09:12:00;;;;;;;17.40;10.60;;;;;;;;;;5376783;26;20032;-63
2024/04/24 09:14:27;;;;;;;16.13;9.20;;;;;;;;;;5375220;26;20040;-64
2024/04/24 09:16:54;;;;;;;14.48;9.30;;;;;;;;;;5373657;26;20028;-63
2024/04/24 09:19:20;;;;;;;16.52;10.05;;;;;;;;;;5377831;26;20033;-64
2024/04/24 09:21:46;;;;;;;14.00;8.93;;;;;;;;;;5369615;26;20032;-62
2024/04/24 09:24:18;;;;;;;12.18;8.52;;;;;;;;;;5369886;26;20035;-62
2024/04/24 09:26:47;;;;;;;14.15;8.68;;;;;;;;;;5352677;26;20032;-64
2024/04/24 09:29:14;;;;;;;12.20;7.88;;;;;;;;;;5374971;26;20036;-63
2024/04/24 09:31:41;;;;;;;14.05;8.55;;;;;;;;;;5370313;26;20438;-62
2024/04/24 09:34:08;;;;;;;14.18;9.40;;;;;;;;;;5375083;26;20104;-62
2024/04/24 09:36:37;;;;;;;12.07;8.27;;;;;;;;;;5386356;26;20032;-62
2024/04/24 09:39:06;;;;;;;15.05;9.77;;;;;;;;;;5375913;26;20028;-63
2024/04/24 09:41:37;;;;;;;14.05;9.15;;;;;;;;;;5372692;26;20387;-62
2024/04/24 09:44:03;;;;;;;14.82;9.25;;;;;;;;;;5369224;26;20040;-63
2024/04/24 09:46:29;;;;;;;14.50;8.98;;;;;;;;;;5405940;26;20043;-64
2024/04/24 09:48:56;;;;;;;14.55;8.82;;;;;;;;;;5411952;26;20027;-63
2024/04/24 09:51:22;;;;;;;13.52;9.20;;;;;;;;;;5411994;26;20032;-63
2024/04/24 09:53:48;;;;;;;11.05;8.13;;;;;;;;;;5411419;26;20036;-63
2024/04/24 09:56:19;;;;;;;13.65;8.70;;;;;;;;;;5377657;26;20043;-63
2024/04/24 09:58:50;;;;;;;13.82;8.18;;;;;;;;;;5359830;26;20035;-63
2024/04/24 10:01:18;;;;;;;13.20;9.02;;;;;;;;;;5375238;26;20027;-63
2024/04/24 10:03:47;;;;;;;14.75;9.25;;;;;;;;;;5379577;26;20032;-63
2024/04/24 10:06:21;;;;;;;12.38;9.02;;;;;;;;;;5411880;26;20039;-65
2024/04/24 10:08:50;;;;;;;14.93;9.90;;;;;;;;;;5381562;26;20004;-63
2024/04/24 10:11:20;;;;;;;17.87;11.17;;;;;;;;;;5413085;26;20039;-64
2024/04/24 10:13:48;;;;;;;18.67;10.93;;;;;;;;;;5408843;26;20040;-66
2024/04/24 10:16:15;;;;;;;19.33;11.50;;;;;;;;;;5408775;26;20027;-65
2024/04/24 10:18:44;;;;;;;14.82;10.05;;;;;;;;;;5382316;26;20039;-64
2024/04/24 10:21:11;;;;;;;15.20;10.35;;;;;;;;;;5406768;26;20031;-65
2024/04/24 10:23:38;;;;;;;17.83;9.73;;;;;;;;;;5411772;26;20031;-64
2024/04/24 10:26:06;;;;;;;14.40;9.82;;;;;;;;;;5378231;26;20039;-64
2024/04/24 10:28:34;;;;;;;16.67;10.27;;;;;;;;;;5384102;26;20039;-64
2024/04/24 10:31:02;;;;;;;14.30;9.73;;;;;;;;;;5409922;26;20043;-64
2024/04/24 10:33:30;;;;;;;14.10;9.80;;;;;;;;;;5379598;26;20371;-65
2024/04/24 10:35:56;;;;;;;17.88;10.90;;;;;;;;;;5341080;26;20387;-64
2024/04/24 10:38:25;;;;;;;15.35;10.18;;;;;;;;;;5411428;26;20023;-65
2024/04/24 10:40:54;;;;;;;17.13;9.90;;;;;;;;;;5378226;26;20051;-64
2024/04/24 10:43:22;;;;;;;13.50;9.75;;;;;;;;;;5407251;26;20028;-64
2024/04/24 10:45:52;;;;;;;17.92;10.43;;;;;;;;;;5409074;26;20129;-64
2024/04/24 10:48:19;;;;;;;15.82;9.65;;;;;;;;;;5409549;26;20043;-64
2024/04/24 10:50:48;;;;;;;15.93;10.00;;;;;;;;;;5410297;26;20395;-64
2024/04/24 10:53:14;;;;;;;14.98;8.98;;;;;;;;;;5385937;26;20055;-64
2024/04/24 10:55:58;;;;;;;14.07;9.32;;;;;;;;;;5412977;26;20027;-63
2024/04/24 10:58:24;;;;;;;11.88;7.88;;;;;;;;;;5399882;26;20384;-63
2024/04/24 11:00:50;;;;;;;14.60;8.80;;;;;;;;;;5411621;26;20040;-63
2024/04/24 11:03:17;;;;;;;12.50;8.50;;;;;;;;;;5352261;26;20035;-64
2024/04/24 11:05:43;;;;;;;15.93;8.85;;;;;;;;;;5411506;26;20028;-64
2024/04/24 11:08:15;;;;;;;13.32;9.23;;;;;;;;;;5453128;21;20043;-64
2024/04/24 11:10:51;;;;;;;12.10;8.68;;;;;;;;;;5443055;26;20046;-64
2024/04/24 11:13:17;;;;;;;13.02;9.30;;;;;;;;;;5438064;26;20038;-65
2024/04/24 11:15:44;;;;;;;20.15;10.15;;;;;;;;;;5439916;26;20027;-62
2024/04/24 11:18:10;;;;;;;16.00;10.00;;;;;;;;;;5387797;26;20188;-64
2024/04/24 11:20:37;;;;;;;14.20;9.30;;;;;;;;;;5410914;26;20036;-64
2024/04/24 11:23:10;;;;;;;13.75;8.63;;;;;;;;;;5384209;26;20039;-64
2024/04/24 11:25:46;;;;;;;14.60;8.65;;;;;;;;;;5410761;26;20340;-65
2024/04/24 11:28:20;;;;;;;14.82;8.98;;;;;;;;;;5404696;26;20475;-64
2024/04/24 11:30:47;;;;;;;13.73;9.07;;;;;;;;;;5408731;26;20031;-63
2024/04/24 11:33:13;;;;;;;14.70;9.18;;;;;;;;;;5410225;26;20032;-65
2024/04/24 11:35:42;;;;;;;15.55;9.98;;;;;;;;;;5409759;26;20031;-63
2024/04/24 11:38:09;;;;;;;14.33;9.43;;;;;;;;;;5408052;26;20504;-64
2024/04/24 11:40:40;;;;;;;15.02;9.55;;;;;;;;;;5389107;26;20281;-64
2024/04/24 11:43:06;;;;;;;15.05;9.43;;;;;;;;;;5406148;26;20040;-63
2024/04/24 11:45:33;;;;;;;13.10;9.10;;;;;;;;;;5379650;26;20047;-63
2024/04/24 11:48:00;;;;;;;16.10;10.07;;;;;;;;;;5409204;26;20048;-63
2024/04/24 11:50:27;;;;;;;16.77;10.25;;;;;;;;;;5424941;26;20041;-63
2024/04/24 11:52:53;;;;;;;12.68;9.05;;;;;;;;;;5410921;26;20023;-65
2024/04/24 11:55:19;;;;;;;13.57;9.40;;;;;;;;;;5411793;26;20028;-63
2024/04/24 11:57:46;;;;;;;16.63;10.38;;;;;;;;;;5415770;26;20032;-64
2024/04/24 12:00:13;;;;;;;14.40;9.85;;;;;;;;;;5387216;26;20683;-62
2024/04/24 12:02:39;;;;;;;19.30;9.93;;;;;;;;;;5390190;26;20031;-63
2024/04/24 12:05:06;;;;;;;15.55;10.05;;;;;;;;;;5392666;26;20031;-63
2024/04/24 12:07:33;;;;;;;11.23;8.15;;;;;;;;;;5363022;26;20383;-63
2024/04/24 12:10:00;;;;;;;13.35;9.40;;;;;;;;;;5424399;26;20031;-62
2024/04/24 12:12:26;;;;;;;11.93;8.05;;;;;;;;;;5417716;26;20372;-62
2024/04/24 12:14:55;;;;;;;14.07;9.10;;;;;;;;;;5410038;26;20032;-64
2024/04/24 12:17:21;;;;;;;13.73;8.43;;;;;;;;;;5411682;26;20040;-64
2024/04/24 12:19:48;;;;;;;14.23;8.82;;;;;;;;;;5405318;26;20459;-64
2024/04/24 12:22:15;;;;;;;12.73;8.48;;;;;;;;;;5411034;26;20031;-64
2024/04/24 12:24:41;;;;;;;10.35;7.68;;;;;;;;;;5409207;26;20039;-64
2024/04/24 12:27:08;;;;;;;11.52;7.72;;;;;;;;;;5409341;26;20048;-63
2024/04/24 12:29:34;;;;;;;9.40;6.97;;;;;;;;;;5379613;26;20533;-63
2024/04/24 12:32:02;;;;;;;11.35;7.75;;;;;;;;;;5381364;26;20040;-63
2024/04/24 12:34:29;;;;;;;10.65;7.57;;;;;;;;;;5405969;26;20038;-63
2024/04/24 12:36:55;;;;;;;11.82;7.22;;;;;;;;;;5423574;26;20031;-64
2024/04/24 12:39:21;;;;;;;11.98;7.57;;;;;;;;;;5406494;26;20031;-63
2024/04/24 12:41:48;;;;;;;12.85;8.15;;;;;;;;;;5384062;26;20617;-63
2024/04/24 12:44:15;;;;;;;12.80;8.00;;;;;;;;;;5421573;26;20024;-63
2024/04/24 12:46:42;;;;;;;11.93;7.47;;;;;;;;;;5390756;26;20047;-63
2024/04/24 12:49:08;;;;;;;11.40;7.97;;;;;;;;;;5407230;26;20044;-63
2024/04/24 12:51:35;;;;;;;10.63;7.47;;;;;;;;;;5392213;26;20406;-63
2024/04/24 12:54:01;;;;;;;10.10;7.10;;;;;;;;;;5410176;26;20159;-62
2024/04/24 12:56:28;;;;;;;9.55;7.15;;;;;;;;;;5381551;26;20051;-62
2024/04/24 12:58:54;;;;;;;9.85;6.38;;;;;;;;;;5416790;26;20048;-63
2024/04/24 13:01:21;;;;;;;8.07;5.55;;;;;;;;;;5408592;26;20027;-63
2024/04/24 13:03:48;;;;;;;9.63;6.60;;;;;;;;;;5409853;26;20031;-63
2024/04/24 13:06:15;;;;;;;9.82;6.90;;;;;;;;;;5404915;26;20031;-62
2024/04/24 13:08:42;;;;;;;8.57;6.78;;;;;;;;;;5417334;26;20043;-63
2024/04/24 13:11:08;;;;;;;9.57;6.70;;;;;;;;;;5423485;26;20027;-63
2024/04/24 13:13:35;;;;;;;9.85;6.97;;;;;;;;;;5349575;26;20032;-63
2024/04/24 13:16:01;;;;;;;10.88;6.95;;;;;;;;;;5409495;26;20500;-63
2024/04/24 13:18:27;;;;;;;9.18;6.30;;;;;;;;;;5411266;26;20031;-63
2024/04/24 13:20:53;;;;;;;8.32;6.07;;;;;;;;;;5380072;26;20035;-63
2024/04/24 13:23:20;;;;;;;8.80;6.57;;;;;;;;;;5408845;26;20379;-63
2024/04/24 13:25:48;;;;;;;8.25;6.00;;;;;;;;;;5418979;26;20027;-63
2024/04/24 13:28:15;;;;;;;9.40;6.85;;;;;;;;;;5409482;26;20036;-64
2024/04/24 13:30:42;;;;;;;11.05;6.03;;;;;;;;;;5407693;26;20040;-65
2024/04/24 13:33:08;;;;;;;9.90;5.68;;;;;;;;;;5385451;26;20515;-64
2024/04/24 13:35:37;;;;;;;9.07;5.90;;;;;;;;;;5422428;26;20034;-63
2024/04/24 13:38:03;;;;;;;18.13;8.98;;;;;;;;;;5409059;26;20036;-62
2024/04/24 13:40:30;;;;;;;9.70;5.20;;;;;;;;;;5408369;26;20039;-64
2024/04/24 13:42:56;;;;;;;8.30;5.10;;;;;;;;;;5405839;26;20036;-64
2024/04/24 13:45:22;;;;;;;9.25;4.95;;;;;;;;;;5398296;26;20039;-64
2024/04/24 13:47:51;;;;;;;8.77;5.20;;;;;;;;;;5383233;26;19999;-64
2024/04/24 13:50:18;;;;;;;7.57;5.18;;;;;;;;;;5407259;26;20386;-64
2024/04/24 13:52:44;;;;;;;10.02;5.63;;;;;;;;;;5411920;26;20031;-64
2024/04/24 13:55:10;;;;;;;8.18;5.35;;;;;;;;;;5412442;26;20578;-64
2024/04/24 13:57:37;;;;;;;7.05;5.18;;;;;;;;;;5407949;26;20039;-63
2024/04/24 14:00:04;;;;;;;7.55;5.53;;;;;;;;;;5391603;26;20028;-63
2024/04/24 14:02:36;;;;;;;9.18;5.75;;;;;;;;;;5417967;26;20043;-64
2024/04/24 14:05:02;;;;;;;8.60;5.50;;;;;;;;;;5323295;26;20035;-64
2024/04/24 14:07:28;;;;;;;9.57;6.32;;;;;;;;;;5406716;26;20610;-64
2024/04/24 14:09:54;;;;;;;14.98;6.82;;;;;;;;;;5387837;26;20036;-64
2024/04/24 14:12:20;;;;;;;9.60;5.65;;;;;;;;;;5388282;26;20035;-63
2024/04/24 14:14:47;;;;;;;8.98;5.18;;;;;;;;;;5359450;26;20778;-64
2024/04/24 14:17:13;;;;;;;10.10;7.20;;;;;;;;;;5365129;26;20028;-64
2024/04/24 14:19:39;;;;;;;8.95;5.72;;;;;;;;;;5396240;26;20032;-64
2024/04/24 14:22:05;;;;;;;7.63;5.18;;;;;;;;;;5365796;26;20391;-64
2024/04/24 14:24:31;;;;;;;13.45;7.38;;;;;;;;;;5340818;26;20036;-64
2024/04/24 14:26:57;;;;;;;9.68;6.22;;;;;;;;;;5387594;26;20040;-64
2024/04/24 14:29:23;;;;;;;6.95;5.13;;;;;;;;;;5382590;26;20039;-64
2024/04/24 14:31:50;;;;;;;9.75;6.10;;;;;;;;;;5374374;26;20036;-64
2024/04/24 14:34:17;;;;;;;7.28;5.38;;;;;;;;;;5387811;26;20043;-64